VYMD/MDL METAR and TAF weather

Enter ICAO airport designator
Station Type Date Time Source
VYMD METAR 2019/04/22 14:30 UTC NOAA

VYMD 221430Z 32006KT 5000 HZ FEW020 28/18 Q1003


Station Type Date Time Source
VYMD Decoded METAR 2019/04/22 14:30 UTC NOAA

Station name not available
Apr 22, 2019 - 10:30 AM EDT / 2019.04.22 1430 UTC
Wind: from the NW (320 degrees) at 7 MPH (6 KT):0
Visibility: 3 mile(s):0
Sky conditions: mostly clear
Weather: haze
Temperature: 82 F (28 C)
Dew Point: 64 F (18 C)
Relative Humidity: 54%
Pressure (altimeter): 29.62 in. Hg (1003 hPa)
ob: VYMD 221430Z 32006KT 5000 HZ FEW020 28/18 Q1003
cycle: 14

Station Type Date Time Source
VYMD TAF 2019/04/22 12:00 UTC NOAA

TAF VYMD 221100Z 2212/2312 19008KT 6000 SCT020
TEMPO 2212/2218 16007KT 5000 HZ

Example: see airport list